Time;durP1;ratioP1;P1;durP2;ratioP2;P2;SDS_P1;SDS_P2;PMS_P1;PMS_P2;Temp;Humidity;BMP_temperature;BMP_pressure;BME280_temperature;BME280_humidity;BME280_pressure;Samples;Min_cycle;Max_cycle;Signal;HPM_P1;HPM_P2
2022/11/01 00:01:30;;;;;;;17.83;11.20;;;;;;;6.33;100.00;96280.84;5020412;28;20501;-79
2022/11/01 00:03:57;;;;;;;17.73;12.33;;;;;;;6.60;100.00;96274.69;5048129;28;20984;-79
2022/11/01 00:06:25;;;;;;;9.97;8.47;;;;;;;6.84;100.00;96303.25;5032472;28;20525;-79
2022/11/01 00:08:51;;;;;;;10.33;9.33;;;;;;;6.21;100.00;96224.41;5042459;28;20471;-79
2022/11/01 00:11:18;;;;;;;13.60;10.40;;;;;;;6.15;100.00;96225.63;5053480;28;20516;-79
2022/11/01 00:13:47;;;;;;;12.03;10.10;;;;;;;6.93;100.00;96315.31;5040009;28;20449;-79
2022/11/01 00:16:15;;;;;;;12.27;10.30;;;;;;;7.07;100.00;96328.38;5054899;28;20469;-79
2022/11/01 00:18:42;;;;;;;10.07;8.87;;;;;;;6.56;100.00;96250.09;5045141;28;20441;-79
2022/11/01 00:21:10;;;;;;;9.30;8.40;;;;;;;7.00;100.00;96331.44;5043568;28;20534;-79
2022/11/01 00:23:37;;;;;;;12.03;8.07;;;;;;;6.80;100.00;96279.41;5042124;28;20457;-79
2022/11/01 00:26:04;;;;;;;15.50;8.63;;;;;;;6.95;100.00;96325.56;5052056;28;20481;-79
2022/11/01 00:28:31;;;;;;;8.90;7.00;;;;;;;7.01;100.00;96327.75;5053333;28;20513;-79
2022/11/01 00:30:58;;;;;;;9.20;7.93;;;;;;;6.83;100.00;96323.50;5029441;28;20528;-79
2022/11/01 00:33:25;;;;;;;9.70;7.40;;;;;;;6.35;100.00;96266.34;5029075;28;20437;-79
2022/11/01 00:35:52;;;;;;;7.00;6.30;;;;;;;6.61;100.00;96329.53;5048854;28;20517;-79
2022/11/01 00:38:19;;;;;;;15.60;8.30;;;;;;;6.15;100.00;96248.47;5053432;28;20433;-79
2022/11/01 00:40:46;;;;;;;10.23;7.70;;;;;;;6.48;100.00;96333.78;5041106;28;20883;-80
2022/11/01 00:43:13;;;;;;;11.70;6.90;;;;;;;6.18;100.00;96316.91;5048707;28;20518;-79
2022/11/01 00:45:43;;;;;;;16.00;6.53;;;;;;;6.34;100.00;96313.91;5034547;28;20462;-79
2022/11/01 00:48:11;;;;;;;11.03;7.03;;;;;;;6.22;100.00;96293.44;5057379;28;20868;-79
2022/11/01 00:50:38;;;;;;;10.10;6.37;;;;;;;6.21;100.00;96276.16;5052484;28;20463;-79
2022/11/01 00:53:06;;;;;;;7.50;6.47;;;;;;;6.08;100.00;96285.63;5046489;28;20512;-79
2022/11/01 00:55:33;;;;;;;9.53;6.80;;;;;;;6.00;100.00;96256.69;5035583;28;20521;-79
2022/11/01 00:57:59;;;;;;;14.30;6.77;;;;;;;5.83;100.00;96231.84;5025567;28;21018;-79
2022/11/01 01:00:26;;;;;;;8.13;6.73;;;;;;;6.15;100.00;96286.00;5054523;28;20520;-79
2022/11/01 01:02:54;;;;;;;12.23;7.47;;;;;;;6.30;100.00;96298.00;5060055;28;20457;-79
2022/11/01 01:05:20;;;;;;;12.77;7.67;;;;;;;6.03;100.00;96251.63;5059913;28;20466;-78
2022/11/01 01:07:47;;;;;;;11.83;7.60;;;;;;;6.09;100.00;96262.78;5065216;28;20433;-78
2022/11/01 01:10:14;;;;;;;8.30;7.40;;;;;;;6.48;100.00;96315.41;5065697;28;20491;-78
2022/11/01 01:12:40;;;;;;;9.13;6.50;;;;;;;6.42;100.00;96313.97;5044945;28;20472;-78
2022/11/01 01:15:08;;;;;;;8.27;6.43;;;;;;;6.47;100.00;96326.22;5042012;28;20483;-78
2022/11/01 01:17:34;;;;;;;7.10;6.40;;;;;;;6.44;100.00;96313.69;5069938;28;20430;-78
2022/11/01 01:20:01;;;;;;;7.23;6.53;;;;;;;6.17;100.00;96270.72;5042557;28;20451;-78
2022/11/01 01:22:28;;;;;;;19.47;8.20;;;;;;;6.07;100.00;96265.72;5036634;28;20454;-78
2022/11/01 01:24:54;;;;;;;9.10;7.07;;;;;;;5.49;100.00;96206.16;5029535;28;20497;-79
2022/11/01 01:27:21;;;;;;;8.63;7.67;;;;;;;6.03;100.00;96295.47;5035205;28;20445;-79
2022/11/01 01:29:48;;;;;;;14.60;9.60;;;;;;;4.69;100.00;96097.53;5035342;28;20513;-78
2022/11/01 01:32:16;;;;;;;13.23;9.63;;;;;;;6.07;100.00;96289.31;5031569;28;20540;-78
2022/11/01 01:34:43;;;;;;;10.90;8.73;;;;;;;5.85;100.00;96268.28;5029890;28;20547;-78
2022/11/01 01:37:11;;;;;;;13.73;9.50;;;;;;;5.67;100.00;96235.13;5024542;28;20427;-78
2022/11/01 01:39:37;;;;;;;9.50;7.70;;;;;;;6.05;100.00;96285.44;5037437;28;20478;-78
2022/11/01 01:42:15;;;;;;;7.97;6.73;;;;;;;5.99;100.00;96274.28;5048502;28;20550;-78
2022/11/01 01:44:51;;;;;;;9.13;8.00;;;;;;;6.23;100.00;96308.91;5040413;28;20492;-78
2022/11/01 01:47:27;;;;;;;10.30;8.30;;;;;;;5.95;100.00;96262.84;5047253;28;20474;-78
2022/11/01 01:50:00;;;;;;;8.67;7.60;;;;;;;6.10;100.00;96301.06;5052535;28;20466;-78
2022/11/01 01:52:31;;;;;;;8.43;7.57;;;;;;;6.34;100.00;96306.81;5052112;28;20883;-78
2022/11/01 01:55:02;;;;;;;12.20;8.47;;;;;;;6.14;100.00;96299.41;5024715;28;20445;-78
2022/11/01 01:57:29;;;;;;;11.63;7.40;;;;;;;6.09;100.00;96302.16;5035161;28;20540;-79
2022/11/01 01:59:56;;;;;;;8.40;7.23;;;;;;;6.04;100.00;96276.81;5019535;28;20433;-78
2022/11/01 02:02:24;;;;;;;10.73;6.67;;;;;;;6.50;100.00;96344.75;5030778;28;20458;-78
2022/11/01 02:04:56;;;;;;;8.43;7.40;;;;;;;6.06;100.00;96329.78;5052455;28;20458;-78
2022/11/01 02:07:24;;;;;;;8.53;7.47;;;;;;;5.86;100.00;96327.53;5053434;28;20421;-79
2022/11/01 02:09:53;;;;;;;8.67;6.07;;;;;;;6.06;100.00;96339.50;5049584;28;20953;-78
2022/11/01 02:12:23;;;;;;;7.00;5.57;;;;;;;5.69;100.00;96304.56;5032741;28;20460;-78
2022/11/01 02:14:50;;;;;;;7.57;6.37;;;;;;;5.76;100.00;96333.03;5034684;28;20457;-78
2022/11/01 02:17:32;;;;;;;7.90;7.10;;;;;;;5.00;100.00;96262.69;5056789;28;20480;-79
2022/11/01 02:20:31;;;;;;;7.87;6.60;;;;;;;5.56;100.00;96321.09;5049021;28;20858;-78
2022/11/01 02:23:22;;;;;;;12.47;6.93;;;;;;;5.78;100.00;96315.91;5030907;28;20513;-78
2022/11/01 02:25:55;;;;;;;14.70;7.60;;;;;;;5.81;100.00;96320.56;5034405;28;20512;-78
2022/11/01 02:29:09;;;;;;;11.67;6.50;;;;;;;5.76;100.00;96319.91;5044190;28;20435;-78
2022/11/01 02:31:58;;;;;;;8.70;6.47;;;;;;;5.83;100.00;96317.66;5040106;28;20490;-78
2022/11/01 02:34:32;;;;;;;9.37;6.77;;;;;;;5.94;100.00;96321.63;5048044;28;20426;-78
2022/11/01 02:37:10;;;;;;;7.57;5.73;;;;;;;5.91;100.00;96330.09;5048747;28;20834;-78
2022/11/01 02:39:41;;;;;;;10.47;7.00;;;;;;;5.59;100.00;96287.19;5017047;28;20443;-78
2022/11/01 02:42:12;;;;;;;7.10;5.33;;;;;;;5.62;100.00;96312.06;5050217;28;20445;-78
2022/11/01 02:44:44;;;;;;;8.00;5.70;;;;;;;5.33;100.00;96260.72;5049757;28;20482;-78
2022/11/01 02:47:12;;;;;;;8.70;5.10;;;;;;;5.42;100.00;96255.56;5051422;28;20465;-79
2022/11/01 02:49:45;;;;;;;7.47;5.83;;;;;;;5.89;100.00;96322.50;5041610;28;20485;-78
2022/11/01 02:52:22;;;;;;;6.30;5.60;;;;;;;5.62;100.00;96280.59;5040760;28;20481;-79
2022/11/01 02:54:55;;;;;;;8.00;5.50;;;;;;;5.86;100.00;96309.19;5046675;28;20945;-79
2022/11/01 02:57:24;;;;;;;6.93;5.23;;;;;;;5.98;100.00;96319.19;5031447;28;20430;-79
2022/11/01 02:59:51;;;;;;;7.63;5.30;;;;;;;5.53;100.00;96280.50;5035648;28;20436;-79
2022/11/01 03:02:38;;;;;;;11.80;6.07;;;;;;;5.59;100.00;96320.50;5046668;28;20477;-78
2022/11/01 03:05:20;;;;;;;6.90;4.70;;;;;;;5.38;100.00;96291.31;5050680;28;20512;-79
2022/11/01 03:07:54;;;;;;;6.43;4.47;;;;;;;5.64;100.00;96320.41;5022573;28;20422;-81
2022/11/01 03:10:26;;;;;;;6.40;5.30;;;;;;;5.51;100.00;96289.75;5031517;28;20435;-79
2022/11/01 03:13:01;;;;;;;8.13;6.03;;;;;;;5.65;100.00;96306.22;5031747;28;20536;-79
2022/11/01 03:15:38;;;;;;;8.00;5.60;;;;;;;5.07;100.00;96238.72;5032133;28;21026;-79
2022/11/01 03:18:13;;;;;;;6.43;5.70;;;;;;;5.34;100.00;96283.28;5041140;28;20450;-79
2022/11/01 03:20:51;;;;;;;14.80;7.27;;;;;;;5.24;100.00;96243.38;5045695;28;20550;-79
2022/11/01 03:23:25;;;;;;;12.87;6.63;;;;;;;5.58;100.00;96284.88;5039488;28;20422;-78
2022/11/01 03:25:56;;;;;;;10.20;5.23;;;;;;;5.37;100.00;96263.56;5038650;28;20496;-79
2022/11/01 03:28:30;;;;;;;6.07;5.17;;;;;;;5.74;100.00;96317.56;5051518;28;20458;-79
2022/11/01 03:31:06;;;;;;;5.40;4.90;;;;;;;5.07;100.00;96275.41;5048014;28;20441;-78
2022/11/01 03:33:36;;;;;;;6.80;6.10;;;;;;;5.34;100.00;96285.91;5042017;28;20434;-79
2022/11/01 03:36:08;;;;;;;18.23;5.43;;;;;;;5.78;100.00;96323.00;5055115;28;20428;-78
2022/11/01 03:38:44;;;;;;;6.13;5.53;;;;;;;6.02;100.00;96346.41;5028814;28;20442;-78
2022/11/01 03:41:15;;;;;;;8.53;7.00;;;;;;;6.01;100.00;96339.59;5041679;28;20481;-79
2022/11/01 03:43:42;;;;;;;6.77;5.73;;;;;;;5.65;100.00;96311.47;5053251;28;20436;-79
2022/11/01 03:46:09;;;;;;;5.73;5.23;;;;;;;5.81;100.00;96328.44;5041171;28;20507;-79
2022/11/01 03:48:39;;;;;;;7.63;5.80;;;;;;;5.49;100.00;96266.44;5051271;28;20441;-79
2022/11/01 03:51:06;;;;;;;12.80;6.20;;;;;;;5.86;100.00;96336.19;5032574;28;20473;-79
2022/11/01 03:53:33;;;;;;;8.33;6.43;;;;;;;5.46;100.00;96282.75;5028767;28;20466;-78
2022/11/01 03:56:00;;;;;;;9.30;6.70;;;;;;;5.75;100.00;96337.50;5051445;28;20419;-79
2022/11/01 03:58:40;;;;;;;8.00;6.17;;;;;;;5.49;100.00;96308.41;5058953;28;20439;-79
2022/11/01 04:01:08;;;;;;;7.50;4.97;;;;;;;5.51;100.00;96331.69;5040286;28;20506;-79
2022/11/01 04:03:36;;;;;;;10.30;5.60;;;;;;;5.18;100.00;96300.34;5038277;28;20442;-79
2022/11/01 04:06:04;;;;;;;8.80;5.10;;;;;;;5.61;100.00;96340.16;5011138;28;20565;-79
2022/11/01 04:08:31;;;;;;;8.77;5.73;;;;;;;5.63;100.00;96352.97;5053962;28;20452;-79
2022/11/01 04:10:58;;;;;;;9.20;6.33;;;;;;;5.70;100.00;96339.44;5025000;28;20455;-79
2022/11/01 04:13:25;;;;;;;8.87;5.90;;;;;;;5.50;100.00;96327.53;5034743;28;20458;-79
2022/11/01 04:21:25;;;;;;;6.50;5.40;;;;;;;5.38;100.00;96287.94;5038937;28;20450;-79
2022/11/01 04:23:52;;;;;;;7.03;6.20;;;;;;;5.70;100.00;96352.56;5040242;28;20884;-79
2022/11/01 04:26:22;;;;;;;6.60;6.00;;;;;;;5.13;100.00;96257.75;5037174;28;20464;-79
2022/11/01 04:28:58;;;;;;;8.70;6.33;;;;;;;5.72;100.00;96358.28;5026101;28;20532;-79
2022/11/01 04:31:33;;;;;;;6.43;4.87;;;;;;;5.69;100.00;96359.66;5054761;28;20465;-79
2022/11/01 04:34:01;;;;;;;7.57;5.67;;;;;;;5.39;100.00;96334.03;5033894;28;20447;-79
2022/11/01 04:36:28;;;;;;;8.97;5.30;;;;;;;5.63;100.00;96361.59;5048259;28;20425;-78
2022/11/01 04:38:56;;;;;;;6.93;4.93;;;;;;;5.17;100.00;96301.41;5045164;28;20827;-78
2022/11/01 04:41:25;;;;;;;8.30;6.00;;;;;;;4.98;100.00;96287.66;5031558;28;20468;-77
2022/11/01 04:43:54;;;;;;;9.00;4.43;;;;;;;5.29;100.00;96335.00;5025784;28;20435;-77
2022/11/01 04:46:21;;;;;;;9.73;5.80;;;;;;;5.10;100.00;96308.13;5043772;28;20550;-76
2022/11/01 04:48:48;;;;;;;8.83;5.80;;;;;;;5.00;100.00;96309.88;5045150;28;20454;-77
2022/11/01 04:51:15;;;;;;;9.63;5.17;;;;;;;5.33;100.00;96357.72;5041840;28;20811;-77
2022/11/01 04:53:42;;;;;;;11.37;6.07;;;;;;;5.20;100.00;96313.16;5043895;28;20477;-77
2022/11/01 04:56:12;;;;;;;9.83;5.70;;;;;;;5.54;100.00;96359.94;5047400;28;20438;-77
2022/11/01 04:58:39;;;;;;;15.13;5.37;;;;;;;4.98;100.00;96290.28;5021621;28;20447;-78
2022/11/01 05:01:12;;;;;;;6.10;5.37;;;;;;;5.15;100.00;96321.91;5046939;28;20466;-77
2022/11/01 05:03:39;;;;;;;5.80;5.20;;;;;;;5.01;100.00;96300.94;5047062;28;20429;-78
2022/11/01 05:06:05;;;;;;;9.93;6.27;;;;;;;5.39;100.00;96352.38;5041567;28;20458;-77
2022/11/01 05:08:32;;;;;;;7.53;4.80;;;;;;;5.31;100.00;96345.97;5042669;28;20434;-77
2022/11/01 05:10:59;;;;;;;6.10;5.50;;;;;;;5.27;100.00;96352.88;5017048;28;20466;-77
2022/11/01 05:13:26;;;;;;;9.97;5.93;;;;;;;5.25;100.00;96337.44;5046188;28;20461;-77
2022/11/01 05:15:52;;;;;;;6.70;5.40;;;;;;;5.13;100.00;96333.75;5040066;28;20887;-77
2022/11/01 05:18:41;;;;;;;7.93;5.77;;;;;;;5.16;100.00;96318.22;5036900;28;20440;-77
2022/11/01 05:21:08;;;;;;;6.40;5.20;;;;;;;5.43;100.00;96375.09;5041877;28;20453;-77
2022/11/01 05:23:34;;;;;;;14.43;5.73;;;;;;;4.94;100.00;96345.09;5039807;28;21005;-77
2022/11/01 05:26:01;;;;;;;6.23;5.63;;;;;;;4.91;100.00;96344.88;5027488;28;20541;-77
2022/11/01 05:28:27;;;;;;;8.60;5.73;;;;;;;5.24;100.00;96393.56;5029767;28;20537;-77
2022/11/01 05:30:56;;;;;;;7.40;6.27;;;;;;;4.96;100.00;96353.44;5016540;28;20461;-77
2022/11/01 05:33:23;;;;;;;7.17;6.40;;;;;;;5.01;100.00;96352.56;5023664;28;20520;-78
2022/11/01 05:35:50;;;;;;;8.03;6.17;;;;;;;4.96;100.00;96335.09;5044629;28;20422;-77
2022/11/01 05:38:17;;;;;;;10.27;6.10;;;;;;;4.78;100.00;96328.06;5043321;28;20445;-77
2022/11/01 05:40:43;;;;;;;7.37;5.07;;;;;;;5.04;100.00;96362.44;5022747;28;20434;-77
2022/11/01 05:43:10;;;;;;;8.03;5.67;;;;;;;5.12;100.00;96380.13;5046365;28;20802;-77
2022/11/01 05:45:37;;;;;;;10.30;5.90;;;;;;;5.01;100.00;96349.94;5043389;28;20496;-77
2022/11/01 05:48:03;;;;;;;12.57;6.83;;;;;;;5.19;100.00;96375.28;5039779;28;20440;-78
2022/11/01 05:50:30;;;;;;;10.93;7.00;;;;;;;5.38;100.00;96401.44;5042508;28;20422;-77
2022/11/01 05:53:09;;;;;;;7.40;5.83;;;;;;;5.43;100.00;96414.44;5047156;28;20649;-77
2022/11/01 05:55:36;;;;;;;15.40;6.77;;;;;;;5.50;100.00;96412.22;5016267;28;20434;-78
2022/11/01 05:58:04;;;;;;;11.37;6.77;;;;;;;5.57;100.00;96417.84;5029970;28;20437;-77
2022/11/01 06:00:32;;;;;;;8.63;7.03;;;;;;;5.25;100.00;96353.16;5046748;28;20436;-77
2022/11/01 06:03:01;;;;;;;7.60;6.57;;;;;;;5.41;100.00;96397.44;5010904;28;20464;-77
2022/11/01 06:05:30;;;;;;;9.03;6.53;;;;;;;5.04;100.00;96355.38;5038812;28;20434;-77
2022/11/01 06:08:00;;;;;;;8.13;7.00;;;;;;;5.05;100.00;96356.91;5045779;28;20796;-77
2022/11/01 06:10:32;;;;;;;17.97;12.83;;;;;;;5.38;100.00;96388.31;5043677;28;20441;-78
2022/11/01 06:13:02;;;;;;;12.27;11.00;;;;;;;5.30;100.00;96370.63;5030914;28;21062;-78
2022/11/01 06:15:31;;;;;;;11.87;9.20;;;;;;;5.18;100.00;96376.34;5039574;28;20450;-77
2022/11/01 06:18:04;;;;;;;14.10;11.03;;;;;;;5.62;100.00;96432.72;5037095;28;20429;-77
2022/11/01 06:20:32;;;;;;;17.00;9.93;;;;;;;5.56;100.00;96424.16;5038260;28;20457;-77
2022/11/01 06:22:58;;;;;;;17.30;9.80;;;;;;;5.27;100.00;96394.81;5042195;28;20993;-77
2022/11/01 06:25:26;;;;;;;12.37;9.73;;;;;;;5.60;100.00;96435.59;5028650;28;20435;-77
2022/11/01 06:27:53;;;;;;;13.03;9.77;;;;;;;5.17;100.00;96369.56;5043125;28;20468;-77
2022/11/01 06:30:20;;;;;;;14.13;9.47;;;;;;;5.58;100.00;96444.84;5038675;28;20528;-77
2022/11/01 06:32:46;;;;;;;13.13;8.93;;;;;;;5.69;100.00;96442.81;5040348;28;20498;-77
2022/11/01 06:35:14;;;;;;;12.00;9.63;;;;;;;5.54;100.00;96407.16;5044823;28;20450;-77
2022/11/01 06:37:41;;;;;;;10.10;7.70;;;;;;;5.29;100.00;96367.22;5042949;28;20450;-78
2022/11/01 06:40:10;;;;;;;60.07;49.20;;;;;;;5.63;100.00;96418.53;5032829;28;20550;-78
2022/11/01 06:42:38;;;;;;;140.57;100.27;;;;;;;5.95;100.00;96467.50;5043462;28;20456;-78
2022/11/01 06:45:12;;;;;;;61.97;49.20;;;;;;;5.51;100.00;96405.91;5037935;28;20409;-77
2022/11/01 06:47:38;;;;;;;42.53;25.93;;;;;;;5.67;100.00;96429.97;5021537;28;21063;-79
2022/11/01 06:50:05;;;;;;;20.70;16.80;;;;;;;5.58;100.00;96410.75;5011550;28;20821;-77
2022/11/01 06:52:32;;;;;;;11.87;10.43;;;;;;;5.87;100.00;96460.28;5028313;28;20465;-77
2022/11/01 06:54:59;;;;;;;12.97;11.60;;;;;;;5.96;100.00;96474.31;5038003;28;20999;-77
2022/11/01 06:57:25;;;;;;;14.37;11.57;;;;;;;5.93;100.00;96465.19;5038074;28;20484;-78
2022/11/01 06:59:52;;;;;;;16.23;14.50;;;;;;;6.17;100.00;96488.59;5027733;28;20434;-77
2022/11/01 07:02:18;;;;;;;16.70;14.50;;;;;;;6.25;100.00;96496.84;5044469;28;20467;-77
2022/11/01 07:04:48;;;;;;;16.50;13.97;;;;;;;5.89;100.00;96439.81;5038622;28;20437;-77
2022/11/01 07:07:15;;;;;;;17.97;15.80;;;;;;;6.38;100.00;96504.69;5038980;28;20472;-77
2022/11/01 07:09:42;;;;;;;22.73;16.07;;;;;;;6.07;100.00;96457.28;5043653;28;20438;-78
2022/11/01 07:12:09;;;;;;;67.07;60.43;;;;;;;6.27;100.00;96484.97;5033431;28;20490;-78
2022/11/01 07:14:35;;;;;;;47.07;39.77;;;;;;;6.19;100.00;96468.06;5042460;28;20430;-77
2022/11/01 07:17:02;;;;;;;34.77;29.03;;;;;;;6.35;100.00;96501.88;5019995;28;20435;-78
2022/11/01 07:19:28;;;;;;;18.07;15.80;;;;;;;6.30;100.00;96489.66;5033001;28;20543;-77
2022/11/01 07:21:55;;;;;;;16.00;14.10;;;;;;;6.52;100.00;96521.22;5013659;28;20435;-77
2022/11/01 07:24:22;;;;;;;15.20;13.63;;;;;;;6.53;100.00;96525.38;5023555;28;20504;-77
2022/11/01 07:26:48;;;;;;;19.77;15.03;;;;;;;6.52;100.00;96526.47;5037266;28;20835;-77
2022/11/01 07:29:15;;;;;;;17.87;13.83;;;;;;;6.33;100.00;96488.28;5042043;28;20442;-77
2022/11/01 07:31:42;;;;;;;14.30;12.80;;;;;;;6.30;100.00;96492.28;5044167;28;20896;-77
2022/11/01 07:34:08;;;;;;;14.97;13.37;;;;;;;6.54;100.00;96523.53;5039898;28;20437;-77
2022/11/01 07:36:35;;;;;;;16.17;12.90;;;;;;;6.10;100.00;96461.94;5038436;28;20430;-77
2022/11/01 07:39:02;;;;;;;16.60;13.67;;;;;;;6.35;100.00;96507.91;5025112;28;20962;-77
2022/11/01 07:41:29;;;;;;;15.73;12.90;;;;;;;6.12;100.00;96457.19;5043332;28;20442;-77
2022/11/01 07:43:56;;;;;;;13.73;12.43;;;;;;;6.55;100.00;96516.47;5040511;28;20454;-77
2022/11/01 07:46:23;;;;;;;14.20;12.80;;;;;;;6.61;100.00;96507.38;5014755;28;20462;-77
2022/11/01 07:48:50;;;;;;;16.30;13.53;;;;;;;6.76;100.00;96522.81;5012089;28;20430;-77
2022/11/01 07:51:17;;;;;;;19.33;10.80;;;;;;;6.81;100.00;96526.13;5040970;28;20903;-77
2022/11/01 07:53:44;;;;;;;13.40;10.60;;;;;;;6.69;100.00;96486.47;5041172;28;20457;-77
2022/11/01 07:56:10;;;;;;;15.03;10.27;;;;;;;6.77;100.00;96493.63;5016712;28;20702;-77
2022/11/01 07:58:37;;;;;;;13.37;10.40;;;;;;;7.03;100.00;96522.72;5020134;28;20427;-77
2022/11/01 08:01:03;;;;;;;16.67;11.60;;;;;;;6.85;100.00;96484.25;5054693;28;20454;-77
2022/11/01 08:03:30;;;;;;;14.13;12.60;;;;;;;6.99;100.00;96503.38;5010873;28;20436;-78
2022/11/01 08:05:57;;;;;;;13.60;12.17;;;;;;;6.97;100.00;96486.34;5020967;28;20936;-78
2022/11/01 08:08:23;;;;;;;19.17;14.03;;;;;;;7.16;100.00;96530.88;5021257;28;20521;-77
2022/11/01 08:10:50;;;;;;;14.80;12.30;;;;;;;7.18;100.00;96508.44;5030620;28;20444;-77
2022/11/01 08:13:19;;;;;;;18.03;14.40;;;;;;;6.93;100.00;96465.13;5019402;28;20439;-77
2022/11/01 08:15:48;;;;;;;18.30;13.93;;;;;;;7.15;100.00;96495.91;5043628;28;20926;-77
2022/11/01 08:18:16;;;;;;;17.57;14.53;;;;;;;7.00;100.00;96473.38;5031764;28;20423;-77
2022/11/01 08:20:43;;;;;;;23.17;14.63;;;;;;;7.23;100.00;96499.69;5023522;28;20443;-77
2022/11/01 08:23:10;;;;;;;17.00;13.63;;;;;;;7.06;100.00;96458.25;5036207;28;20445;-77
2022/11/01 08:25:37;;;;;;;16.73;14.57;;;;;;;7.12;100.00;96475.47;5030910;28;20448;-78
2022/11/01 08:28:06;;;;;;;24.93;15.17;;;;;;;7.55;100.00;96536.22;5026986;28;20453;-78
2022/11/01 08:30:33;;;;;;;14.50;12.87;;;;;;;7.32;100.00;96474.19;5024433;28;20437;-78
2022/11/01 08:33:01;;;;;;;16.53;12.67;;;;;;;7.72;100.00;96532.91;5037076;28;21093;-78
2022/11/01 08:35:29;;;;;;;22.57;14.70;;;;;;;7.77;100.00;96529.38;5026796;28;20438;-79
2022/11/01 08:37:57;;;;;;;16.10;13.90;;;;;;;7.82;100.00;96527.38;5044283;28;20425;-79
2022/11/01 08:40:27;;;;;;;15.87;14.13;;;;;;;8.03;100.00;96522.38;5018878;28;20529;-79
2022/11/01 08:42:54;;;;;;;16.33;12.60;;;;;;;8.27;100.00;96553.56;5017354;28;20982;-78
2022/11/01 08:45:20;;;;;;;14.53;13.03;;;;;;;8.31;100.00;96541.38;5021139;28;20940;-78
2022/11/01 08:47:47;;;;;;;15.90;13.67;;;;;;;8.32;100.00;96534.22;5044746;28;20461;-79
2022/11/01 08:50:16;;;;;;;18.83;14.20;;;;;;;8.42;100.00;96550.56;5040872;28;20430;-76
2022/11/01 08:52:43;;;;;;;18.17;14.30;;;;;;;8.61;100.00;96560.84;5038101;28;20485;-76
2022/11/01 08:55:10;;;;;;;17.50;14.27;;;;;;;8.55;100.00;96554.16;5028021;28;20435;-77
2022/11/01 08:57:37;;;;;;;18.53;15.90;;;;;;;8.76;100.00;96580.69;5020628;28;20427;-77
2022/11/01 09:00:09;;;;;;;16.27;13.90;;;;;;;8.74;100.00;96583.66;5027320;28;20437;-77
2022/11/01 09:02:36;;;;;;;19.23;14.53;;;;;;;8.64;100.00;96565.47;5039757;28;20996;-77
2022/11/01 09:05:05;;;;;;;16.50;14.00;;;;;;;8.78;100.00;96574.03;5022902;28;20439;-77
2022/11/01 09:07:35;;;;;;;19.90;15.30;;;;;;;8.70;100.00;96576.69;5049864;28;20460;-77
2022/11/01 09:10:03;;;;;;;21.07;15.70;;;;;;;8.46;100.00;96566.53;5022109;28;20443;-77
2022/11/01 09:12:30;;;;;;;21.47;15.40;;;;;;;8.66;100.00;96571.22;5013666;28;20542;-77
2022/11/01 09:14:56;;;;;;;21.00;14.47;;;;;;;8.82;100.00;96582.13;5025300;28;20442;-77
2022/11/01 09:17:23;;;;;;;19.03;13.97;;;;;;;8.59;100.00;96528.75;5035007;28;20465;-77
2022/11/01 09:19:50;;;;;;;23.80;14.27;;;;;;;8.98;100.00;96571.91;5054189;28;20483;-77
2022/11/01 09:22:17;;;;;;;18.30;15.90;;;;;;;8.99;100.00;96584.00;5020825;28;20536;-77
2022/11/01 09:24:44;;;;;;;20.00;15.80;;;;;;;8.98;100.00;96559.50;5032972;28;21044;-77
2022/11/01 09:27:11;;;;;;;18.63;16.73;;;;;;;9.26;100.00;96562.59;5047484;28;20794;-77
2022/11/01 09:29:37;;;;;;;18.47;15.07;;;;;;;9.57;100.00;96561.63;5045519;28;20440;-77
2022/11/01 09:32:05;;;;;;;20.80;15.10;;;;;;;9.51;100.00;96549.69;5039153;28;20985;-77
2022/11/01 09:34:32;;;;;;;19.90;14.60;;;;;;;9.75;100.00;96536.75;5039932;28;20524;-77
2022/11/01 09:36:59;;;;;;;16.57;13.90;;;;;;;10.16;100.00;96567.06;5022416;28;20441;-77
2022/11/01 09:39:26;;;;;;;14.60;12.87;;;;;;;10.00;100.00;96549.06;5026196;28;20444;-78
2022/11/01 09:41:59;;;;;;;13.90;12.60;;;;;;;10.54;100.00;96615.41;5040151;28;20456;-78
2022/11/01 09:44:30;;;;;;;15.03;11.77;;;;;;;10.38;100.00;96589.84;5039059;28;20943;-77
2022/11/01 09:47:11;;;;;;;20.37;16.23;;;;;;;10.72;100.00;96594.97;5036434;28;20459;-78
2022/11/01 09:49:42;;;;;;;19.03;15.83;;;;;;;10.89;100.00;96608.09;5044256;28;20509;-78
2022/11/01 09:52:18;;;;;;;14.37;12.17;;;;;;;10.84;100.00;96623.38;5043160;28;20448;-77
2022/11/01 09:54:46;;;;;;;15.63;13.90;;;;;;;10.55;100.00;96608.25;5034672;28;20516;-78
2022/11/01 09:57:33;;;;;;;16.17;13.47;;;;;;;10.78;100.00;96635.22;5044629;28;20884;-78
2022/11/01 10:00:12;;;;;;;14.50;13.00;;;;;;;10.76;100.00;96621.53;5031382;28;20425;-78
2022/11/01 10:03:15;;;;;;;17.90;12.43;;;;;;;11.02;100.00;96632.75;5038658;28;20495;-78
2022/11/01 10:05:48;;;;;;;14.07;12.67;;;;;;;11.17;100.00;96637.47;5038838;28;20434;-78
2022/11/01 10:08:32;;;;;;;12.10;10.83;;;;;;;11.35;100.00;96634.69;5042041;28;20458;-78
2022/11/01 10:11:18;;;;;;;13.37;12.00;;;;;;;11.45;100.00;96635.09;5028892;28;20472;-78
2022/11/01 10:14:01;;;;;;;12.00;10.80;;;;;;;11.55;100.00;96626.75;5033585;28;20410;-78
2022/11/01 10:16:42;;;;;;;13.10;10.67;;;;;;;11.94;100.00;96626.59;5025876;28;20809;-78
2022/11/01 10:19:17;;;;;;;13.63;11.40;;;;;;;11.93;100.00;96595.91;5046091;28;20438;-78
2022/11/01 10:21:49;;;;;;;12.77;10.43;;;;;;;12.29;100.00;96622.50;5045276;28;20503;-77
2022/11/01 10:24:22;;;;;;;11.20;10.07;;;;;;;12.31;100.00;96580.50;5040789;28;20425;-77
2022/11/01 10:26:54;;;;;;;10.87;9.60;;;;;;;12.33;100.00;96573.00;5038016;28;20804;-77
2022/11/01 10:29:39;;;;;;;12.33;10.37;;;;;;;12.72;100.00;96600.72;5042292;28;20457;-77
2022/11/01 10:32:22;;;;;;;11.07;9.97;;;;;;;12.74;100.00;96581.81;5028657;28;20986;-77
2022/11/01 10:34:51;;;;;;;10.40;9.23;;;;;;;12.85;100.00;96585.56;5045703;28;20940;-79
2022/11/01 10:37:39;;;;;;;10.60;9.43;;;;;;;13.00;100.00;96595.50;5039010;28;20528;-77
2022/11/01 10:40:31;;;;;;;9.70;7.60;;;;;;;13.43;100.00;96622.53;5018681;28;20442;-77
2022/11/01 10:42:59;;;;;;;10.23;7.33;;;;;;;13.39;100.00;96590.56;5028483;28;20464;-78
2022/11/01 10:45:26;;;;;;;8.20;7.37;;;;;;;13.41;100.00;96591.00;5038524;28;20436;-78
2022/11/01 10:47:57;;;;;;;8.63;7.30;;;;;;;13.36;100.00;96570.00;5037643;28;21388;-78
2022/11/01 10:50:27;;;;;;;5.67;5.07;;;;;;;13.99;100.00;96633.16;5043075;28;20528;-77
2022/11/01 10:53:09;;;;;;;10.17;4.57;;;;;;;14.05;100.00;96650.41;5044711;28;20885;-78
2022/11/01 10:55:42;;;;;;;7.90;5.00;;;;;;;14.06;100.00;96644.75;5043229;28;20414;-78
2022/11/01 10:58:36;;;;;;;4.83;4.27;;;;;;;13.74;100.00;96571.34;5038893;28;20504;-77
2022/11/01 11:01:07;;;;;;;5.50;4.00;;;;;;;13.95;100.00;96598.50;5019364;28;20545;-77
2022/11/01 11:03:37;;;;;;;5.83;3.40;;;;;;;14.23;100.00;96643.66;5042986;28;20452;-78
2022/11/01 11:06:08;;;;;;;3.67;3.37;;;;;;;14.13;100.00;96634.28;5045861;28;20787;-77
2022/11/01 11:08:38;;;;;;;5.73;3.73;;;;;;;14.04;100.00;96627.59;5042342;28;20502;-78
2022/11/01 11:11:15;;;;;;;4.80;4.33;;;;;;;14.22;100.00;96647.44;5033452;28;20875;-78
2022/11/01 11:13:46;;;;;;;4.87;3.90;;;;;;;14.25;100.00;96644.09;5044772;28;20861;-78
2022/11/01 11:16:48;;;;;;;4.00;3.60;;;;;;;14.24;100.00;96642.53;5039757;28;20504;-78
2022/11/01 11:19:37;;;;;;;4.30;3.40;;;;;;;14.22;100.00;96651.97;5024568;28;20434;-78
2022/11/01 11:22:07;;;;;;;5.03;3.40;;;;;;;14.11;100.00;96631.19;5037873;28;20510;-78
2022/11/01 11:24:39;;;;;;;4.87;3.90;;;;;;;13.83;100.00;96595.91;5005607;28;20441;-78
2022/11/01 11:27:29;;;;;;;4.13;3.73;;;;;;;13.87;100.00;96618.03;5044352;28;21073;-78
2022/11/01 11:30:07;;;;;;;8.10;3.70;;;;;;;14.09;100.00;96654.69;5045466;28;20443;-78
2022/11/01 11:32:45;;;;;;;4.00;3.17;;;;;;;13.96;100.00;96639.16;5041805;28;20500;-78
2022/11/01 11:35:16;;;;;;;4.00;3.53;;;;;;;13.75;100.00;96605.56;5038870;28;20417;-78
2022/11/01 11:37:59;;;;;;;5.03;3.70;;;;;;;14.09;100.00;96636.09;5027079;28;20514;-79
2022/11/01 11:40:39;;;;;;;3.87;2.97;;;;;;;14.16;100.00;96652.25;5027672;28;20512;-78
2022/11/01 11:43:40;;;;;;;3.40;3.00;;;;;;;14.20;100.00;96654.97;5022665;28;20841;-78
2022/11/01 11:46:14;;;;;;;4.20;2.73;;;;;;;14.32;100.00;96644.28;5038868;28;20496;-79